sensor_id;sensor_type;location;lat;lon;timestamp;P1;durP1;ratioP1;P2;durP2;ratioP2
15271;SDS011;7737;51.578;7.268;2023-05-07T00:00:42;26.77;;;24.35;;
15271;SDS011;7737;51.578;7.268;2023-05-07T00:03:09;28.95;;;26.35;;
15271;SDS011;7737;51.578;7.268;2023-05-07T00:05:37;28.70;;;26.05;;
15271;SDS011;7737;51.578;7.268;2023-05-07T00:08:04;28.45;;;25.55;;
15271;SDS011;7737;51.578;7.268;2023-05-07T00:10:30;27.48;;;25.08;;
15271;SDS011;7737;51.578;7.268;2023-05-07T00:12:57;29.63;;;26.73;;
15271;SDS011;7737;51.578;7.268;2023-05-07T00:15:23;29.23;;;26.52;;
15271;SDS011;7737;51.578;7.268;2023-05-07T00:17:50;30.88;;;27.95;;
15271;SDS011;7737;51.578;7.268;2023-05-07T00:20:16;31.27;;;28.27;;
15271;SDS011;7737;51.578;7.268;2023-05-07T00:22:44;31.60;;;28.70;;
15271;SDS011;7737;51.578;7.268;2023-05-07T00:25:11;32.97;;;29.88;;
15271;SDS011;7737;51.578;7.268;2023-05-07T00:27:37;32.05;;;28.88;;
15271;SDS011;7737;51.578;7.268;2023-05-07T00:30:04;31.45;;;28.48;;
15271;SDS011;7737;51.578;7.268;2023-05-07T00:32:32;30.50;;;27.58;;
15271;SDS011;7737;51.578;7.268;2023-05-07T00:34:59;30.67;;;27.65;;
15271;SDS011;7737;51.578;7.268;2023-05-07T00:37:25;29.35;;;26.65;;
15271;SDS011;7737;51.578;7.268;2023-05-07T00:39:53;30.80;;;27.85;;
15271;SDS011;7737;51.578;7.268;2023-05-07T00:42:20;29.67;;;26.98;;
15271;SDS011;7737;51.578;7.268;2023-05-07T00:44:47;29.80;;;27.10;;
15271;SDS011;7737;51.578;7.268;2023-05-07T00:47:13;28.20;;;25.63;;
15271;SDS011;7737;51.578;7.268;2023-05-07T00:49:41;29.55;;;26.83;;
15271;SDS011;7737;51.578;7.268;2023-05-07T00:52:09;29.30;;;26.50;;
15271;SDS011;7737;51.578;7.268;2023-05-07T00:54:39;27.27;;;24.67;;
15271;SDS011;7737;51.578;7.268;2023-05-07T00:57:08;28.33;;;25.70;;
15271;SDS011;7737;51.578;7.268;2023-05-07T00:59:36;28.92;;;26.10;;
15271;SDS011;7737;51.578;7.268;2023-05-07T01:02:02;29.33;;;26.50;;
15271;SDS011;7737;51.578;7.268;2023-05-07T01:04:29;27.42;;;24.90;;
15271;SDS011;7737;51.578;7.268;2023-05-07T01:06:56;27.73;;;25.23;;
15271;SDS011;7737;51.578;7.268;2023-05-07T01:09:24;29.73;;;26.73;;
15271;SDS011;7737;51.578;7.268;2023-05-07T01:11:51;31.13;;;28.05;;
15271;SDS011;7737;51.578;7.268;2023-05-07T01:14:20;30.98;;;27.88;;
15271;SDS011;7737;51.578;7.268;2023-05-07T01:16:47;30.15;;;27.05;;
15271;SDS011;7737;51.578;7.268;2023-05-07T01:19:16;31.25;;;28.23;;
15271;SDS011;7737;51.578;7.268;2023-05-07T01:21:49;31.95;;;28.85;;
15271;SDS011;7737;51.578;7.268;2023-05-07T01:24:18;28.95;;;26.15;;
15271;SDS011;7737;51.578;7.268;2023-05-07T01:26:45;28.42;;;25.67;;
15271;SDS011;7737;51.578;7.268;2023-05-07T01:29:11;30.20;;;27.40;;
15271;SDS011;7737;51.578;7.268;2023-05-07T01:31:38;30.08;;;27.17;;
15271;SDS011;7737;51.578;7.268;2023-05-07T01:34:08;30.35;;;27.60;;
15271;SDS011;7737;51.578;7.268;2023-05-07T01:36:38;31.63;;;28.58;;
15271;SDS011;7737;51.578;7.268;2023-05-07T01:39:08;32.40;;;29.33;;
15271;SDS011;7737;51.578;7.268;2023-05-07T01:41:38;31.52;;;28.40;;
15271;SDS011;7737;51.578;7.268;2023-05-07T01:44:04;32.90;;;29.55;;
15271;SDS011;7737;51.578;7.268;2023-05-07T01:46:31;31.83;;;28.73;;
15271;SDS011;7737;51.578;7.268;2023-05-07T01:48:59;31.50;;;28.35;;
15271;SDS011;7737;51.578;7.268;2023-05-07T01:51:26;33.65;;;30.10;;
15271;SDS011;7737;51.578;7.268;2023-05-07T01:53:52;35.88;;;30.48;;
15271;SDS011;7737;51.578;7.268;2023-05-07T01:56:19;30.55;;;27.60;;
15271;SDS011;7737;51.578;7.268;2023-05-07T01:58:47;32.00;;;28.70;;
15271;SDS011;7737;51.578;7.268;2023-05-07T02:01:14;31.35;;;28.05;;
15271;SDS011;7737;51.578;7.268;2023-05-07T02:03:40;31.60;;;28.40;;
15271;SDS011;7737;51.578;7.268;2023-05-07T02:06:07;30.58;;;27.67;;
15271;SDS011;7737;51.578;7.268;2023-05-07T02:08:34;31.35;;;28.05;;
15271;SDS011;7737;51.578;7.268;2023-05-07T02:11:00;32.83;;;29.52;;
15271;SDS011;7737;51.578;7.268;2023-05-07T02:13:28;31.88;;;28.48;;
15271;SDS011;7737;51.578;7.268;2023-05-07T02:15:57;31.88;;;28.80;;
15271;SDS011;7737;51.578;7.268;2023-05-07T02:18:23;31.48;;;28.38;;
15271;SDS011;7737;51.578;7.268;2023-05-07T02:20:50;31.13;;;28.02;;
15271;SDS011;7737;51.578;7.268;2023-05-07T02:23:17;33.70;;;30.10;;
15271;SDS011;7737;51.578;7.268;2023-05-07T02:25:43;32.10;;;28.85;;
15271;SDS011;7737;51.578;7.268;2023-05-07T02:28:11;31.58;;;28.38;;
15271;SDS011;7737;51.578;7.268;2023-05-07T02:30:37;32.60;;;29.15;;
15271;SDS011;7737;51.578;7.268;2023-05-07T02:33:06;32.80;;;29.27;;
15271;SDS011;7737;51.578;7.268;2023-05-07T02:35:33;33.83;;;30.00;;
15271;SDS011;7737;51.578;7.268;2023-05-07T02:38:00;31.50;;;28.33;;
15271;SDS011;7737;51.578;7.268;2023-05-07T02:40:26;32.08;;;28.63;;
15271;SDS011;7737;51.578;7.268;2023-05-07T02:42:53;32.15;;;28.73;;
15271;SDS011;7737;51.578;7.268;2023-05-07T02:45:19;30.08;;;26.92;;
15271;SDS011;7737;51.578;7.268;2023-05-07T02:47:46;32.55;;;29.05;;
15271;SDS011;7737;51.578;7.268;2023-05-07T02:50:14;29.90;;;26.98;;
15271;SDS011;7737;51.578;7.268;2023-05-07T02:52:40;31.10;;;28.08;;
15271;SDS011;7737;51.578;7.268;2023-05-07T02:55:07;33.03;;;29.42;;
15271;SDS011;7737;51.578;7.268;2023-05-07T02:57:34;31.63;;;28.20;;
15271;SDS011;7737;51.578;7.268;2023-05-07T03:00:09;31.00;;;27.92;;
15271;SDS011;7737;51.578;7.268;2023-05-07T03:02:37;30.80;;;27.70;;
15271;SDS011;7737;51.578;7.268;2023-05-07T03:05:03;30.90;;;27.67;;
15271;SDS011;7737;51.578;7.268;2023-05-07T03:07:32;30.10;;;27.08;;
15271;SDS011;7737;51.578;7.268;2023-05-07T03:09:59;30.98;;;27.88;;
15271;SDS011;7737;51.578;7.268;2023-05-07T03:12:25;31.83;;;28.27;;
15271;SDS011;7737;51.578;7.268;2023-05-07T03:14:52;32.05;;;28.75;;
15271;SDS011;7737;51.578;7.268;2023-05-07T03:17:19;29.95;;;26.90;;
15271;SDS011;7737;51.578;7.268;2023-05-07T03:19:46;30.63;;;27.63;;
15271;SDS011;7737;51.578;7.268;2023-05-07T03:22:13;30.65;;;27.48;;
15271;SDS011;7737;51.578;7.268;2023-05-07T03:24:41;31.02;;;27.88;;
15271;SDS011;7737;51.578;7.268;2023-05-07T03:27:07;28.58;;;25.77;;
15271;SDS011;7737;51.578;7.268;2023-05-07T03:29:34;29.73;;;26.92;;
15271;SDS011;7737;51.578;7.268;2023-05-07T03:32:01;30.67;;;27.50;;
15271;SDS011;7737;51.578;7.268;2023-05-07T03:34:27;29.75;;;26.83;;
15271;SDS011;7737;51.578;7.268;2023-05-07T03:36:54;30.63;;;27.67;;
15271;SDS011;7737;51.578;7.268;2023-05-07T03:39:20;32.63;;;29.10;;
15271;SDS011;7737;51.578;7.268;2023-05-07T03:41:48;30.85;;;27.55;;
15271;SDS011;7737;51.578;7.268;2023-05-07T03:44:15;29.10;;;26.23;;
15271;SDS011;7737;51.578;7.268;2023-05-07T03:46:41;31.38;;;28.00;;
15271;SDS011;7737;51.578;7.268;2023-05-07T03:49:08;29.90;;;26.70;;
15271;SDS011;7737;51.578;7.268;2023-05-07T03:51:34;28.30;;;25.45;;
15271;SDS011;7737;51.578;7.268;2023-05-07T03:54:01;29.88;;;26.83;;
15271;SDS011;7737;51.578;7.268;2023-05-07T03:56:28;30.00;;;27.02;;
15271;SDS011;7737;51.578;7.268;2023-05-07T03:58:57;28.45;;;25.65;;
15271;SDS011;7737;51.578;7.268;2023-05-07T04:01:24;28.48;;;25.58;;
15271;SDS011;7737;51.578;7.268;2023-05-07T04:03:50;29.17;;;26.27;;
15271;SDS011;7737;51.578;7.268;2023-05-07T04:06:17;29.00;;;26.00;;
15271;SDS011;7737;51.578;7.268;2023-05-07T04:08:44;28.83;;;25.85;;
15271;SDS011;7737;51.578;7.268;2023-05-07T04:11:10;29.45;;;26.60;;
15271;SDS011;7737;51.578;7.268;2023-05-07T04:13:37;29.27;;;26.25;;
15271;SDS011;7737;51.578;7.268;2023-05-07T04:16:05;29.77;;;26.73;;
15271;SDS011;7737;51.578;7.268;2023-05-07T04:18:32;31.92;;;27.08;;
15271;SDS011;7737;51.578;7.268;2023-05-07T04:20:58;29.45;;;26.45;;
15271;SDS011;7737;51.578;7.268;2023-05-07T04:23:25;33.53;;;28.88;;
15271;SDS011;7737;51.578;7.268;2023-05-07T04:25:51;32.35;;;29.02;;
15271;SDS011;7737;51.578;7.268;2023-05-07T04:28:19;32.38;;;28.73;;
15271;SDS011;7737;51.578;7.268;2023-05-07T04:30:45;34.35;;;29.90;;
15271;SDS011;7737;51.578;7.268;2023-05-07T04:33:15;35.28;;;30.02;;
15271;SDS011;7737;51.578;7.268;2023-05-07T04:35:41;30.25;;;27.05;;
15271;SDS011;7737;51.578;7.268;2023-05-07T04:38:08;30.95;;;27.92;;
15271;SDS011;7737;51.578;7.268;2023-05-07T04:40:35;30.35;;;27.13;;
15271;SDS011;7737;51.578;7.268;2023-05-07T04:43:02;30.50;;;27.13;;
15271;SDS011;7737;51.578;7.268;2023-05-07T04:45:29;28.45;;;25.63;;
15271;SDS011;7737;51.578;7.268;2023-05-07T04:47:56;28.95;;;25.95;;
15271;SDS011;7737;51.578;7.268;2023-05-07T04:50:23;28.60;;;25.73;;
15271;SDS011;7737;51.578;7.268;2023-05-07T04:52:50;28.10;;;25.13;;
15271;SDS011;7737;51.578;7.268;2023-05-07T04:55:17;29.75;;;26.65;;
15271;SDS011;7737;51.578;7.268;2023-05-07T04:57:44;29.10;;;26.00;;
15271;SDS011;7737;51.578;7.268;2023-05-07T05:00:10;27.38;;;24.15;;
15271;SDS011;7737;51.578;7.268;2023-05-07T05:02:39;26.27;;;23.58;;
15271;SDS011;7737;51.578;7.268;2023-05-07T05:05:06;27.10;;;24.20;;
15271;SDS011;7737;51.578;7.268;2023-05-07T05:07:34;26.83;;;24.05;;
15271;SDS011;7737;51.578;7.268;2023-05-07T05:10:01;25.48;;;22.98;;
15271;SDS011;7737;51.578;7.268;2023-05-07T05:12:28;26.10;;;23.50;;
15271;SDS011;7737;51.578;7.268;2023-05-07T05:14:55;25.88;;;23.35;;
15271;SDS011;7737;51.578;7.268;2023-05-07T05:17:22;25.15;;;22.63;;
15271;SDS011;7737;51.578;7.268;2023-05-07T05:19:48;23.00;;;19.83;;
15271;SDS011;7737;51.578;7.268;2023-05-07T05:22:15;21.20;;;19.02;;
15271;SDS011;7737;51.578;7.268;2023-05-07T05:24:43;20.40;;;18.30;;
15271;SDS011;7737;51.578;7.268;2023-05-07T05:27:10;22.08;;;19.60;;
15271;SDS011;7737;51.578;7.268;2023-05-07T05:29:37;20.10;;;18.02;;
15271;SDS011;7737;51.578;7.268;2023-05-07T05:32:03;19.58;;;17.73;;
15271;SDS011;7737;51.578;7.268;2023-05-07T05:34:30;18.38;;;16.77;;
15271;SDS011;7737;51.578;7.268;2023-05-07T05:36:58;16.92;;;14.77;;
15271;SDS011;7737;51.578;7.268;2023-05-07T05:39:25;14.48;;;13.02;;
15271;SDS011;7737;51.578;7.268;2023-05-07T05:41:53;14.45;;;13.07;;
15271;SDS011;7737;51.578;7.268;2023-05-07T05:44:19;13.77;;;12.23;;
15271;SDS011;7737;51.578;7.268;2023-05-07T05:46:46;13.15;;;11.90;;
15271;SDS011;7737;51.578;7.268;2023-05-07T05:49:14;13.23;;;12.02;;
15271;SDS011;7737;51.578;7.268;2023-05-07T05:51:41;13.60;;;11.98;;
15271;SDS011;7737;51.578;7.268;2023-05-07T05:54:08;12.63;;;11.52;;
15271;SDS011;7737;51.578;7.268;2023-05-07T05:56:34;12.38;;;11.27;;
15271;SDS011;7737;51.578;7.268;2023-05-07T05:59:02;12.23;;;11.13;;
15271;SDS011;7737;51.578;7.268;2023-05-07T06:01:29;11.73;;;10.63;;
15271;SDS011;7737;51.578;7.268;2023-05-07T06:03:56;11.15;;;10.15;;
15271;SDS011;7737;51.578;7.268;2023-05-07T06:06:22;10.65;;;9.75;;
15271;SDS011;7737;51.578;7.268;2023-05-07T06:08:49;10.85;;;9.85;;
15271;SDS011;7737;51.578;7.268;2023-05-07T06:11:16;10.98;;;9.63;;
15271;SDS011;7737;51.578;7.268;2023-05-07T06:13:42;9.63;;;8.73;;
15271;SDS011;7737;51.578;7.268;2023-05-07T06:16:10;10.82;;;8.77;;
15271;SDS011;7737;51.578;7.268;2023-05-07T06:18:37;9.43;;;8.52;;
15271;SDS011;7737;51.578;7.268;2023-05-07T06:21:03;9.23;;;8.25;;
15271;SDS011;7737;51.578;7.268;2023-05-07T06:23:30;9.93;;;7.65;;
15271;SDS011;7737;51.578;7.268;2023-05-07T06:25:57;8.30;;;7.38;;
15271;SDS011;7737;51.578;7.268;2023-05-07T06:28:23;9.20;;;8.40;;
15271;SDS011;7737;51.578;7.268;2023-05-07T06:30:50;8.20;;;7.40;;
15271;SDS011;7737;51.578;7.268;2023-05-07T06:33:18;8.43;;;7.70;;
15271;SDS011;7737;51.578;7.268;2023-05-07T06:35:44;8.15;;;7.40;;
15271;SDS011;7737;51.578;7.268;2023-05-07T06:38:11;7.97;;;7.03;;
15271;SDS011;7737;51.578;7.268;2023-05-07T06:40:38;7.15;;;6.45;;
15271;SDS011;7737;51.578;7.268;2023-05-07T06:43:04;7.75;;;6.63;;
15271;SDS011;7737;51.578;7.268;2023-05-07T06:45:31;7.20;;;6.47;;
15271;SDS011;7737;51.578;7.268;2023-05-07T06:47:57;7.10;;;6.60;;
15271;SDS011;7737;51.578;7.268;2023-05-07T06:50:26;8.48;;;7.45;;
15271;SDS011;7737;51.578;7.268;2023-05-07T06:52:52;8.25;;;7.45;;
15271;SDS011;7737;51.578;7.268;2023-05-07T06:55:19;8.27;;;7.45;;
15271;SDS011;7737;51.578;7.268;2023-05-07T06:57:45;8.70;;;7.78;;
15271;SDS011;7737;51.578;7.268;2023-05-07T07:00:13;8.38;;;7.57;;
15271;SDS011;7737;51.578;7.268;2023-05-07T07:02:40;8.57;;;7.75;;
15271;SDS011;7737;51.578;7.268;2023-05-07T07:05:07;8.48;;;7.80;;
15271;SDS011;7737;51.578;7.268;2023-05-07T07:07:35;9.07;;;8.20;;
15271;SDS011;7737;51.578;7.268;2023-05-07T07:10:01;9.18;;;8.35;;
15271;SDS011;7737;51.578;7.268;2023-05-07T07:12:29;9.43;;;8.43;;
15271;SDS011;7737;51.578;7.268;2023-05-07T07:14:56;8.88;;;8.18;;
15271;SDS011;7737;51.578;7.268;2023-05-07T07:17:22;9.43;;;8.52;;
15271;SDS011;7737;51.578;7.268;2023-05-07T07:19:49;10.82;;;9.80;;
15271;SDS011;7737;51.578;7.268;2023-05-07T07:22:16;11.23;;;10.13;;
15271;SDS011;7737;51.578;7.268;2023-05-07T07:24:44;11.52;;;10.30;;
15271;SDS011;7737;51.578;7.268;2023-05-07T07:27:11;10.93;;;9.77;;
15271;SDS011;7737;51.578;7.268;2023-05-07T07:29:37;11.13;;;10.05;;
15271;SDS011;7737;51.578;7.268;2023-05-07T07:32:04;11.70;;;10.55;;
15271;SDS011;7737;51.578;7.268;2023-05-07T07:34:31;10.57;;;9.57;;
15271;SDS011;7737;51.578;7.268;2023-05-07T07:36:57;9.68;;;8.77;;
15271;SDS011;7737;51.578;7.268;2023-05-07T07:39:30;10.25;;;9.35;;
15271;SDS011;7737;51.578;7.268;2023-05-07T07:41:58;10.18;;;9.27;;
15271;SDS011;7737;51.578;7.268;2023-05-07T07:44:25;11.32;;;10.25;;
15271;SDS011;7737;51.578;7.268;2023-05-07T07:46:51;11.25;;;10.32;;
15271;SDS011;7737;51.578;7.268;2023-05-07T07:49:18;12.07;;;10.85;;
15271;SDS011;7737;51.578;7.268;2023-05-07T07:51:44;11.77;;;10.52;;
15271;SDS011;7737;51.578;7.268;2023-05-07T07:54:11;12.18;;;11.18;;
15271;SDS011;7737;51.578;7.268;2023-05-07T07:56:38;11.65;;;10.73;;
15271;SDS011;7737;51.578;7.268;2023-05-07T07:59:06;11.82;;;10.82;;
15271;SDS011;7737;51.578;7.268;2023-05-07T08:01:32;10.52;;;9.73;;
15271;SDS011;7737;51.578;7.268;2023-05-07T08:03:59;12.23;;;11.23;;
15271;SDS011;7737;51.578;7.268;2023-05-07T08:06:28;11.52;;;10.50;;
15271;SDS011;7737;51.578;7.268;2023-05-07T08:08:55;11.93;;;10.93;;
15271;SDS011;7737;51.578;7.268;2023-05-07T08:11:21;10.75;;;9.82;;
15271;SDS011;7737;51.578;7.268;2023-05-07T08:13:48;11.15;;;9.80;;
15271;SDS011;7737;51.578;7.268;2023-05-07T08:16:16;10.13;;;9.32;;
15271;SDS011;7737;51.578;7.268;2023-05-07T08:18:43;11.80;;;10.73;;
15271;SDS011;7737;51.578;7.268;2023-05-07T08:21:10;12.32;;;11.13;;
15271;SDS011;7737;51.578;7.268;2023-05-07T08:23:36;12.40;;;11.18;;
15271;SDS011;7737;51.578;7.268;2023-05-07T08:26:03;12.00;;;10.90;;
15271;SDS011;7737;51.578;7.268;2023-05-07T08:28:30;12.77;;;11.52;;
15271;SDS011;7737;51.578;7.268;2023-05-07T08:30:57;12.60;;;11.48;;
15271;SDS011;7737;51.578;7.268;2023-05-07T08:33:27;12.80;;;11.63;;
15271;SDS011;7737;51.578;7.268;2023-05-07T08:35:53;12.95;;;11.85;;
15271;SDS011;7737;51.578;7.268;2023-05-07T08:38:20;12.13;;;10.98;;
15271;SDS011;7737;51.578;7.268;2023-05-07T08:40:47;12.23;;;11.23;;
15271;SDS011;7737;51.578;7.268;2023-05-07T08:43:14;11.63;;;10.63;;
15271;SDS011;7737;51.578;7.268;2023-05-07T08:45:40;12.40;;;11.32;;
15271;SDS011;7737;51.578;7.268;2023-05-07T08:48:08;12.20;;;10.82;;
15271;SDS011;7737;51.578;7.268;2023-05-07T08:50:41;12.50;;;11.30;;
15271;SDS011;7737;51.578;7.268;2023-05-07T08:53:08;14.95;;;10.60;;
15271;SDS011;7737;51.578;7.268;2023-05-07T08:55:35;12.23;;;11.13;;
15271;SDS011;7737;51.578;7.268;2023-05-07T08:58:01;11.57;;;10.45;;
15271;SDS011;7737;51.578;7.268;2023-05-07T09:00:28;12.98;;;11.68;;
15271;SDS011;7737;51.578;7.268;2023-05-07T09:02:55;12.40;;;11.25;;
15271;SDS011;7737;51.578;7.268;2023-05-07T09:05:22;13.02;;;10.98;;
15271;SDS011;7737;51.578;7.268;2023-05-07T09:07:50;12.82;;;11.73;;
15271;SDS011;7737;51.578;7.268;2023-05-07T09:10:17;14.15;;;12.85;;
15271;SDS011;7737;51.578;7.268;2023-05-07T09:12:43;14.00;;;12.63;;
15271;SDS011;7737;51.578;7.268;2023-05-07T09:15:13;13.77;;;12.57;;
15271;SDS011;7737;51.578;7.268;2023-05-07T09:17:39;15.05;;;13.55;;
15271;SDS011;7737;51.578;7.268;2023-05-07T09:20:07;14.00;;;12.63;;
15271;SDS011;7737;51.578;7.268;2023-05-07T09:22:35;13.65;;;12.35;;
15271;SDS011;7737;51.578;7.268;2023-05-07T09:25:04;14.20;;;12.80;;
15271;SDS011;7737;51.578;7.268;2023-05-07T09:27:32;14.40;;;12.98;;
15271;SDS011;7737;51.578;7.268;2023-05-07T09:29:59;13.93;;;12.65;;
15271;SDS011;7737;51.578;7.268;2023-05-07T09:32:28;14.48;;;13.23;;
15271;SDS011;7737;51.578;7.268;2023-05-07T09:34:55;12.07;;;10.93;;
15271;SDS011;7737;51.578;7.268;2023-05-07T09:37:22;12.18;;;10.93;;
15271;SDS011;7737;51.578;7.268;2023-05-07T09:39:49;12.45;;;11.35;;
15271;SDS011;7737;51.578;7.268;2023-05-07T09:42:22;12.20;;;11.00;;
15271;SDS011;7737;51.578;7.268;2023-05-07T09:44:49;11.38;;;10.38;;
15271;SDS011;7737;51.578;7.268;2023-05-07T09:47:18;14.57;;;13.38;;
15271;SDS011;7737;51.578;7.268;2023-05-07T09:49:46;12.30;;;11.30;;
15271;SDS011;7737;51.578;7.268;2023-05-07T09:52:14;10.40;;;9.50;;
15271;SDS011;7737;51.578;7.268;2023-05-07T09:54:42;11.20;;;10.30;;
15271;SDS011;7737;51.578;7.268;2023-05-07T09:57:11;12.15;;;10.98;;
15271;SDS011;7737;51.578;7.268;2023-05-07T09:59:39;10.38;;;9.38;;
15271;SDS011;7737;51.578;7.268;2023-05-07T10:02:09;11.85;;;10.85;;
15271;SDS011;7737;51.578;7.268;2023-05-07T10:04:36;12.10;;;11.02;;
15271;SDS011;7737;51.578;7.268;2023-05-07T10:07:03;12.45;;;11.25;;
15271;SDS011;7737;51.578;7.268;2023-05-07T10:09:31;10.32;;;9.32;;
15271;SDS011;7737;51.578;7.268;2023-05-07T10:11:58;10.73;;;9.63;;
15271;SDS011;7737;51.578;7.268;2023-05-07T10:14:25;11.90;;;10.80;;
15271;SDS011;7737;51.578;7.268;2023-05-07T10:16:55;15.35;;;13.32;;
15271;SDS011;7737;51.578;7.268;2023-05-07T10:19:23;14.77;;;13.35;;
15271;SDS011;7737;51.578;7.268;2023-05-07T10:21:51;13.95;;;12.65;;
15271;SDS011;7737;51.578;7.268;2023-05-07T10:24:26;13.88;;;12.60;;
15271;SDS011;7737;51.578;7.268;2023-05-07T10:26:56;11.77;;;10.70;;
15271;SDS011;7737;51.578;7.268;2023-05-07T10:29:29;9.38;;;8.48;;
15271;SDS011;7737;51.578;7.268;2023-05-07T10:32:12;10.25;;;9.35;;
15271;SDS011;7737;51.578;7.268;2023-05-07T10:34:50;8.88;;;8.00;;
15271;SDS011;7737;51.578;7.268;2023-05-07T10:37:21;9.43;;;8.52;;
15271;SDS011;7737;51.578;7.268;2023-05-07T10:39:48;11.23;;;10.15;;
15271;SDS011;7737;51.578;7.268;2023-05-07T10:42:16;10.65;;;9.75;;
15271;SDS011;7737;51.578;7.268;2023-05-07T10:44:43;10.48;;;9.50;;
15271;SDS011;7737;51.578;7.268;2023-05-07T10:47:11;10.68;;;9.68;;
15271;SDS011;7737;51.578;7.268;2023-05-07T10:52:38;10.95;;;9.95;;
15271;SDS011;7737;51.578;7.268;2023-05-07T10:55:21;11.85;;;10.75;;
15271;SDS011;7737;51.578;7.268;2023-05-07T10:57:50;10.70;;;9.70;;
15271;SDS011;7737;51.578;7.268;2023-05-07T11:03:10;10.55;;;9.55;;
15271;SDS011;7737;51.578;7.268;2023-05-07T11:05:37;11.02;;;10.13;;
15271;SDS011;7737;51.578;7.268;2023-05-07T11:08:04;11.07;;;10.13;;
15271;SDS011;7737;51.578;7.268;2023-05-07T11:10:51;11.25;;;10.18;;
15271;SDS011;7737;51.578;7.268;2023-05-07T11:13:40;9.73;;;8.90;;
15271;SDS011;7737;51.578;7.268;2023-05-07T11:16:16;10.50;;;9.43;;
15271;SDS011;7737;51.578;7.268;2023-05-07T11:18:48;9.82;;;8.95;;
15271;SDS011;7737;51.578;7.268;2023-05-07T11:21:31;11.13;;;10.13;;
15271;SDS011;7737;51.578;7.268;2023-05-07T11:23:58;9.43;;;8.63;;
15271;SDS011;7737;51.578;7.268;2023-05-07T11:26:26;8.50;;;7.80;;
15271;SDS011;7737;51.578;7.268;2023-05-07T11:28:54;10.35;;;9.45;;
15271;SDS011;7737;51.578;7.268;2023-05-07T11:31:22;10.10;;;9.20;;
15271;SDS011;7737;51.578;7.268;2023-05-07T11:33:53;9.30;;;8.18;;
15271;SDS011;7737;51.578;7.268;2023-05-07T11:36:21;8.63;;;7.82;;
15271;SDS011;7737;51.578;7.268;2023-05-07T11:38:49;8.88;;;8.07;;
15271;SDS011;7737;51.578;7.268;2023-05-07T11:41:16;8.52;;;7.75;;
15271;SDS011;7737;51.578;7.268;2023-05-07T11:43:57;8.65;;;7.85;;
15271;SDS011;7737;51.578;7.268;2023-05-07T11:46:24;7.75;;;7.00;;
15271;SDS011;7737;51.578;7.268;2023-05-07T11:48:53;7.22;;;6.53;;
15271;SDS011;7737;51.578;7.268;2023-05-07T11:51:21;7.47;;;6.78;;
15271;SDS011;7737;51.578;7.268;2023-05-07T11:53:49;7.40;;;6.70;;
15271;SDS011;7737;51.578;7.268;2023-05-07T11:56:16;7.05;;;6.38;;
15271;SDS011;7737;51.578;7.268;2023-05-07T11:58:44;6.90;;;6.20;;
15271;SDS011;7737;51.578;7.268;2023-05-07T12:01:12;8.25;;;7.45;;
15271;SDS011;7737;51.578;7.268;2023-05-07T12:03:40;7.75;;;7.03;;
15271;SDS011;7737;51.578;7.268;2023-05-07T12:06:10;7.35;;;6.43;;
15271;SDS011;7737;51.578;7.268;2023-05-07T12:08:37;8.00;;;7.20;;
15271;SDS011;7737;51.578;7.268;2023-05-07T12:11:07;7.75;;;7.05;;
15271;SDS011;7737;51.578;7.268;2023-05-07T12:13:36;6.80;;;6.10;;
15271;SDS011;7737;51.578;7.268;2023-05-07T12:16:03;8.70;;;6.63;;
15271;SDS011;7737;51.578;7.268;2023-05-07T12:18:31;8.10;;;7.38;;
15271;SDS011;7737;51.578;7.268;2023-05-07T12:21:00;8.32;;;7.63;;
15271;SDS011;7737;51.578;7.268;2023-05-07T12:23:28;8.77;;;7.97;;
15271;SDS011;7737;51.578;7.268;2023-05-07T12:25:55;8.70;;;7.85;;
15271;SDS011;7737;51.578;7.268;2023-05-07T12:28:21;7.97;;;7.28;;
15271;SDS011;7737;51.578;7.268;2023-05-07T12:30:48;7.55;;;6.85;;
15271;SDS011;7737;51.578;7.268;2023-05-07T12:33:16;6.85;;;6.20;;
15271;SDS011;7737;51.578;7.268;2023-05-07T12:35:47;8.27;;;7.47;;
15271;SDS011;7737;51.578;7.268;2023-05-07T12:38:14;9.30;;;8.35;;
15271;SDS011;7737;51.578;7.268;2023-05-07T12:40:43;9.55;;;8.52;;
15271;SDS011;7737;51.578;7.268;2023-05-07T12:43:15;9.05;;;8.20;;
15271;SDS011;7737;51.578;7.268;2023-05-07T12:45:43;13.52;;;8.18;;
15271;SDS011;7737;51.578;7.268;2023-05-07T12:48:10;7.13;;;6.53;;
15271;SDS011;7737;51.578;7.268;2023-05-07T12:50:37;7.65;;;6.95;;
15271;SDS011;7737;51.578;7.268;2023-05-07T12:53:04;7.43;;;6.55;;
15271;SDS011;7737;51.578;7.268;2023-05-07T12:55:39;6.68;;;5.68;;
15271;SDS011;7737;51.578;7.268;2023-05-07T12:58:08;6.75;;;6.07;;
15271;SDS011;7737;51.578;7.268;2023-05-07T13:00:41;6.97;;;6.25;;
15271;SDS011;7737;51.578;7.268;2023-05-07T13:03:08;7.30;;;6.60;;
15271;SDS011;7737;51.578;7.268;2023-05-07T13:05:35;5.82;;;5.20;;
15271;SDS011;7737;51.578;7.268;2023-05-07T13:08:02;6.88;;;5.65;;
15271;SDS011;7737;51.578;7.268;2023-05-07T13:10:29;6.30;;;5.65;;
15271;SDS011;7737;51.578;7.268;2023-05-07T13:12:55;6.78;;;6.18;;
15271;SDS011;7737;51.578;7.268;2023-05-07T13:15:23;7.55;;;6.78;;
15271;SDS011;7737;51.578;7.268;2023-05-07T13:17:52;8.25;;;7.45;;
15271;SDS011;7737;51.578;7.268;2023-05-07T13:20:18;7.18;;;6.47;;
15271;SDS011;7737;51.578;7.268;2023-05-07T13:22:45;7.50;;;6.80;;
15271;SDS011;7737;51.578;7.268;2023-05-07T13:25:12;8.35;;;6.53;;
15271;SDS011;7737;51.578;7.268;2023-05-07T13:27:39;6.68;;;5.93;;
15271;SDS011;7737;51.578;7.268;2023-05-07T13:30:06;6.80;;;6.20;;
15271;SDS011;7737;51.578;7.268;2023-05-07T13:32:34;6.15;;;5.55;;
15271;SDS011;7737;51.578;7.268;2023-05-07T13:35:01;6.38;;;5.78;;
15271;SDS011;7737;51.578;7.268;2023-05-07T13:37:28;6.78;;;6.00;;
15271;SDS011;7737;51.578;7.268;2023-05-07T13:39:54;7.10;;;6.03;;
15271;SDS011;7737;51.578;7.268;2023-05-07T13:42:21;7.65;;;6.03;;
15271;SDS011;7737;51.578;7.268;2023-05-07T13:44:47;6.55;;;5.53;;
15271;SDS011;7737;51.578;7.268;2023-05-07T13:47:14;6.18;;;5.57;;
15271;SDS011;7737;51.578;7.268;2023-05-07T13:49:42;6.68;;;5.97;;
15271;SDS011;7737;51.578;7.268;2023-05-07T13:52:08;6.28;;;5.68;;
15271;SDS011;7737;51.578;7.268;2023-05-07T13:54:35;7.28;;;6.60;;
15271;SDS011;7737;51.578;7.268;2023-05-07T13:57:02;6.10;;;5.50;;
15271;SDS011;7737;51.578;7.268;2023-05-07T13:59:28;5.90;;;5.30;;
15271;SDS011;7737;51.578;7.268;2023-05-07T14:01:55;5.88;;;5.25;;
15271;SDS011;7737;51.578;7.268;2023-05-07T14:04:21;5.18;;;4.75;;
15271;SDS011;7737;51.578;7.268;2023-05-07T14:06:49;4.80;;;4.40;;
15271;SDS011;7737;51.578;7.268;2023-05-07T14:09:16;5.63;;;4.85;;
15271;SDS011;7737;51.578;7.268;2023-05-07T14:11:43;5.50;;;5.00;;
15271;SDS011;7737;51.578;7.268;2023-05-07T14:14:09;5.22;;;4.72;;
15271;SDS011;7737;51.578;7.268;2023-05-07T14:16:36;5.75;;;5.15;;
15271;SDS011;7737;51.578;7.268;2023-05-07T14:19:03;5.03;;;4.50;;
15271;SDS011;7737;51.578;7.268;2023-05-07T14:21:29;6.38;;;4.50;;
15271;SDS011;7737;51.578;7.268;2023-05-07T14:23:58;4.97;;;4.47;;
15271;SDS011;7737;51.578;7.268;2023-05-07T14:26:25;5.13;;;4.63;;
15271;SDS011;7737;51.578;7.268;2023-05-07T14:28:52;4.93;;;4.50;;
15271;SDS011;7737;51.578;7.268;2023-05-07T14:31:20;6.63;;;5.00;;
15271;SDS011;7737;51.578;7.268;2023-05-07T14:33:47;6.55;;;5.00;;
15271;SDS011;7737;51.578;7.268;2023-05-07T14:36:14;5.13;;;4.72;;
15271;SDS011;7737;51.578;7.268;2023-05-07T14:38:42;4.80;;;4.35;;
15271;SDS011;7737;51.578;7.268;2023-05-07T14:41:09;5.00;;;4.57;;
15271;SDS011;7737;51.578;7.268;2023-05-07T14:43:36;6.75;;;4.40;;
15271;SDS011;7737;51.578;7.268;2023-05-07T14:46:03;5.50;;;5.00;;
15271;SDS011;7737;51.578;7.268;2023-05-07T14:48:30;5.55;;;5.03;;
15271;SDS011;7737;51.578;7.268;2023-05-07T14:50:56;6.80;;;6.20;;